Knot Bad — ZJL8091 — position and weather

sailwx.info

Track history (hours):
 
Tides and Currents Weather Stations Pressure Air Temp Water Temp Dewpoint Dewpoint Depression Visibility Wind Speed Wind Dir Waves Ship Positions

Knot Bad

Last reported at 2015-Mar-01 18:25 UTC. Time now 2015-Mar-01 21:00 UTC.
Position N 18°22' W 064°42'.

Length 16 m.

Type: Sailing vessel. MMSI: 378111591.

Date/timePositionNaut miles runAvg speedWind from/ knotsBaromVisibWave heightAir tempDewpointWater temp
2015-Mar-01 18:25N 18°22' W 064°42'1 0.4
2015-Mar-01 15:19N 18°22' W 064°43'1 0.7
2015-Mar-01 13:10N 18°22' W 064°45'1 0.0
2015-Feb-28 15:29N 18°22' W 064°45'2 2.3
2015-Feb-28 14:33N 18°22' W 064°47'4 3.5
2015-Feb-28 13:32N 18°20' W 064°50'0 0.0
2015-Feb-27 18:07N 18°20' W 064°50'3 4.5
2015-Feb-27 17:32N 18°21' W 064°48'0 0.0
2015-Feb-26 23:17N 18°21' W 064°47'0 0.0
2015-Feb-26 22:23N 18°21' W 064°48'0 0.0
2015-Feb-26 21:29N 18°21' W 064°47'0 0.0
2015-Feb-26 20:29N 18°21' W 064°47'0 0.0
2015-Feb-26 19:20N 18°21' W 064°47'0 0.0
2015-Feb-26 18:14N 18°21' W 064°47'0 0.0
2015-Feb-26 17:32N 18°21' W 064°48'0 0.4
2015-Feb-26 16:33N 18°20' W 064°48'6 4.6
2015-Feb-26 15:17N 18°23' W 064°42'  
2015-Feb-22 12:23N 18°23' W 064°42'4 3.9
2015-Feb-22 11:19N 18°26' W 064°45'0 0.0
2015-Feb-20 23:26N 18°26' W 064°45'0 0.0
2015-Feb-20 22:08N 18°26' W 064°45'0 0.0
2015-Feb-20 18:32N 18°26' W 064°45'  
Track history (hours):
 
Tides and Currents Weather Stations Pressure Air Temp Water Temp Dewpoint Dewpoint Depression Visibility Wind Speed Wind Dir Waves Ship Positions

Knot Bad

Last reported at 2015-Mar-01 18:25 UTC. Time now 2015-Mar-01 21:00 UTC.
Position N 18°22' W 064°42'.

Length 16 m.

Type: Sailing vessel. MMSI: 378111591.

Date/timePositionNaut miles runAvg speedWind from/ knotsBaromVisibWave heightAir tempDewpointWater temp
2015-Mar-01 18:25N 18°22' W 064°42'1 0.4
2015-Mar-01 15:19N 18°22' W 064°43'1 0.7
2015-Mar-01 13:10N 18°22' W 064°45'1 0.0
2015-Feb-28 15:29N 18°22' W 064°45'2 2.3
2015-Feb-28 14:33N 18°22' W 064°47'4 3.5
2015-Feb-28 13:32N 18°20' W 064°50'0 0.0
2015-Feb-27 18:07N 18°20' W 064°50'3 4.5
2015-Feb-27 17:32N 18°21' W 064°48'0 0.0
2015-Feb-26 23:17N 18°21' W 064°47'0 0.0
2015-Feb-26 22:23N 18°21' W 064°48'0 0.0
2015-Feb-26 21:29N 18°21' W 064°47'0 0.0
2015-Feb-26 20:29N 18°21' W 064°47'0 0.0
2015-Feb-26 19:20N 18°21' W 064°47'0 0.0
2015-Feb-26 18:14N 18°21' W 064°47'0 0.0
2015-Feb-26 17:32N 18°21' W 064°48'0 0.4
2015-Feb-26 16:33N 18°20' W 064°48'6 4.6
2015-Feb-26 15:17N 18°23' W 064°42'  
2015-Feb-22 12:23N 18°23' W 064°42'4 3.9
2015-Feb-22 11:19N 18°26' W 064°45'0 0.0
2015-Feb-20 23:26N 18°26' W 064°45'0 0.0
2015-Feb-20 22:08N 18°26' W 064°45'0 0.0
2015-Feb-20 18:32N 18°26' W 064°45'  

Dump ship's entire track history